sensor_id;sensor_type;location;lat;lon;timestamp;temperature;humidity
62916;DHT22;49010;51.230;-2.306;2022-10-15T00:02:51;11.20;92.90
62916;DHT22;49010;51.230;-2.306;2022-10-15T00:06:33;11.20;93.10
62916;DHT22;49010;51.230;-2.306;2022-10-15T00:10:16;11.20;93.10
62916;DHT22;49010;51.230;-2.306;2022-10-15T00:13:58;11.30;93.20
62916;DHT22;49010;51.230;-2.306;2022-10-15T00:17:41;11.20;93.20
62916;DHT22;49010;51.230;-2.306;2022-10-15T00:21:23;11.30;93.30
62916;DHT22;49010;51.230;-2.306;2022-10-15T00:25:05;11.30;93.30
62916;DHT22;49010;51.230;-2.306;2022-10-15T00:28:53;11.30;93.30
62916;DHT22;49010;51.230;-2.306;2022-10-15T00:32:35;11.30;93.30
62916;DHT22;49010;51.230;-2.306;2022-10-15T00:36:20;11.20;93.50
62916;DHT22;49010;51.230;-2.306;2022-10-15T00:40:02;11.20;93.70
62916;DHT22;49010;51.230;-2.306;2022-10-15T00:43:47;11.20;93.90
62916;DHT22;49010;51.230;-2.306;2022-10-15T00:47:36;11.20;94.10
62916;DHT22;49010;51.230;-2.306;2022-10-15T00:51:20;11.30;94.20
62916;DHT22;49010;51.230;-2.306;2022-10-15T00:59:10;11.30;94.40
62916;DHT22;49010;51.230;-2.306;2022-10-15T01:02:53;11.30;94.60
62916;DHT22;49010;51.230;-2.306;2022-10-15T01:06:35;11.30;94.70
62916;DHT22;49010;51.230;-2.306;2022-10-15T01:10:19;11.30;94.80
62916;DHT22;49010;51.230;-2.306;2022-10-15T01:21:55;11.40;95.10
62916;DHT22;49010;51.230;-2.306;2022-10-15T01:30:22;11.50;95.80
62916;DHT22;49010;51.230;-2.306;2022-10-15T01:34:21;11.60;95.40
62916;DHT22;49010;51.230;-2.306;2022-10-15T01:43:02;11.70;95.90
62916;DHT22;49010;51.230;-2.306;2022-10-15T01:50:30;11.90;95.90
62916;DHT22;49010;51.230;-2.306;2022-10-15T01:54:15;11.90;96.20
62916;DHT22;49010;51.230;-2.306;2022-10-15T01:57:59;12.00;96.40
62916;DHT22;49010;51.230;-2.306;2022-10-15T02:01:43;12.00;96.50
62916;DHT22;49010;51.230;-2.306;2022-10-15T02:05:30;12.00;96.70
62916;DHT22;49010;51.230;-2.306;2022-10-15T02:09:56;12.10;96.90
62916;DHT22;49010;51.230;-2.306;2022-10-15T02:17:34;12.20;97.00
62916;DHT22;49010;51.230;-2.306;2022-10-15T02:25:48;12.30;97.00
62916;DHT22;49010;51.230;-2.306;2022-10-15T02:29:33;12.30;97.20
62916;DHT22;49010;51.230;-2.306;2022-10-15T02:33:17;12.30;97.00
62916;DHT22;49010;51.230;-2.306;2022-10-15T02:37:04;12.30;97.00
62916;DHT22;49010;51.230;-2.306;2022-10-15T02:40:47;12.30;97.00
62916;DHT22;49010;51.230;-2.306;2022-10-15T02:44:29;12.30;97.30
62916;DHT22;49010;51.230;-2.306;2022-10-15T02:48:11;12.30;97.40
62916;DHT22;49010;51.230;-2.306;2022-10-15T02:51:53;12.40;97.30
62916;DHT22;49010;51.230;-2.306;2022-10-15T02:55:35;12.40;97.50
62916;DHT22;49010;51.230;-2.306;2022-10-15T02:59:17;12.40;97.40
62916;DHT22;49010;51.230;-2.306;2022-10-15T03:03:00;12.40;97.40
62916;DHT22;49010;51.230;-2.306;2022-10-15T03:06:42;12.50;97.30
62916;DHT22;49010;51.230;-2.306;2022-10-15T03:10:24;12.50;97.30
62916;DHT22;49010;51.230;-2.306;2022-10-15T03:14:06;12.50;97.20
62916;DHT22;49010;51.230;-2.306;2022-10-15T03:17:47;12.60;97.30
62916;DHT22;49010;51.230;-2.306;2022-10-15T03:21:30;12.60;97.20
62916;DHT22;49010;51.230;-2.306;2022-10-15T03:25:12;12.60;97.10
62916;DHT22;49010;51.230;-2.306;2022-10-15T03:28:54;12.70;97.10
62916;DHT22;49010;51.230;-2.306;2022-10-15T03:32:36;12.70;97.30
62916;DHT22;49010;51.230;-2.306;2022-10-15T03:36:18;12.70;97.20
62916;DHT22;49010;51.230;-2.306;2022-10-15T03:39:59;12.70;97.20
62916;DHT22;49010;51.230;-2.306;2022-10-15T03:43:41;12.70;97.20
62916;DHT22;49010;51.230;-2.306;2022-10-15T03:47:23;12.80;97.20
62916;DHT22;49010;51.230;-2.306;2022-10-15T03:51:05;12.80;97.10
62916;DHT22;49010;51.230;-2.306;2022-10-15T03:54:47;12.80;97.00
62916;DHT22;49010;51.230;-2.306;2022-10-15T03:58:29;12.80;97.00
62916;DHT22;49010;51.230;-2.306;2022-10-15T04:02:11;12.80;97.00
62916;DHT22;49010;51.230;-2.306;2022-10-15T04:05:53;12.80;96.90
62916;DHT22;49010;51.230;-2.306;2022-10-15T04:09:36;12.80;97.00
62916;DHT22;49010;51.230;-2.306;2022-10-15T04:13:18;12.90;97.00
62916;DHT22;49010;51.230;-2.306;2022-10-15T04:17:00;12.90;96.90
62916;DHT22;49010;51.230;-2.306;2022-10-15T04:20:42;12.90;96.90
62916;DHT22;49010;51.230;-2.306;2022-10-15T04:24:24;12.90;96.90
62916;DHT22;49010;51.230;-2.306;2022-10-15T04:28:06;12.90;97.00
62916;DHT22;49010;51.230;-2.306;2022-10-15T04:31:48;13.00;97.10
62916;DHT22;49010;51.230;-2.306;2022-10-15T04:35:30;13.00;97.20
62916;DHT22;49010;51.230;-2.306;2022-10-15T04:39:12;13.00;97.60
62916;DHT22;49010;51.230;-2.306;2022-10-15T04:42:55;13.00;97.90
62916;DHT22;49010;51.230;-2.306;2022-10-15T04:46:37;13.00;98.00
62916;DHT22;49010;51.230;-2.306;2022-10-15T04:50:19;13.00;98.10
62916;DHT22;49010;51.230;-2.306;2022-10-15T04:54:01;13.10;98.00
62916;DHT22;49010;51.230;-2.306;2022-10-15T04:57:43;13.10;97.90
62916;DHT22;49010;51.230;-2.306;2022-10-15T05:01:24;13.00;97.90
62916;DHT22;49010;51.230;-2.306;2022-10-15T05:05:07;13.00;98.00
62916;DHT22;49010;51.230;-2.306;2022-10-15T05:08:49;13.00;98.10
62916;DHT22;49010;51.230;-2.306;2022-10-15T05:12:31;13.00;98.10
62916;DHT22;49010;51.230;-2.306;2022-10-15T05:16:19;13.10;98.20
62916;DHT22;49010;51.230;-2.306;2022-10-15T05:20:01;13.10;98.10
62916;DHT22;49010;51.230;-2.306;2022-10-15T05:23:43;13.20;98.20
62916;DHT22;49010;51.230;-2.306;2022-10-15T05:27:26;13.20;98.20
62916;DHT22;49010;51.230;-2.306;2022-10-15T05:31:10;13.20;98.20
62916;DHT22;49010;51.230;-2.306;2022-10-15T05:34:59;13.20;98.10
62916;DHT22;49010;51.230;-2.306;2022-10-15T05:38:41;13.20;98.00
62916;DHT22;49010;51.230;-2.306;2022-10-15T05:42:22;13.30;97.90
62916;DHT22;49010;51.230;-2.306;2022-10-15T05:46:04;13.20;97.80
62916;DHT22;49010;51.230;-2.306;2022-10-15T05:49:47;13.30;97.70
62916;DHT22;49010;51.230;-2.306;2022-10-15T05:53:28;13.20;97.60
62916;DHT22;49010;51.230;-2.306;2022-10-15T05:57:11;13.20;97.50
62916;DHT22;49010;51.230;-2.306;2022-10-15T06:01:06;13.20;97.40
62916;DHT22;49010;51.230;-2.306;2022-10-15T06:04:48;13.20;97.30
62916;DHT22;49010;51.230;-2.306;2022-10-15T06:08:32;13.20;97.20
62916;DHT22;49010;51.230;-2.306;2022-10-15T06:12:14;13.10;97.10
62916;DHT22;49010;51.230;-2.306;2022-10-15T06:15:56;13.00;97.00
62916;DHT22;49010;51.230;-2.306;2022-10-15T06:19:37;12.90;97.00
62916;DHT22;49010;51.230;-2.306;2022-10-15T06:23:19;12.80;97.20
62916;DHT22;49010;51.230;-2.306;2022-10-15T06:27:02;12.70;97.30
62916;DHT22;49010;51.230;-2.306;2022-10-15T06:30:44;12.70;97.30
62916;DHT22;49010;51.230;-2.306;2022-10-15T06:34:26;12.60;97.30
62916;DHT22;49010;51.230;-2.306;2022-10-15T06:38:08;12.60;97.20
62916;DHT22;49010;51.230;-2.306;2022-10-15T06:41:50;12.50;97.20
62916;DHT22;49010;51.230;-2.306;2022-10-15T06:45:32;12.50;97.20
62916;DHT22;49010;51.230;-2.306;2022-10-15T06:49:14;12.40;97.10
62916;DHT22;49010;51.230;-2.306;2022-10-15T06:52:56;12.30;97.10
62916;DHT22;49010;51.230;-2.306;2022-10-15T06:56:39;12.30;97.20
62916;DHT22;49010;51.230;-2.306;2022-10-15T07:00:22;12.30;97.00
62916;DHT22;49010;51.230;-2.306;2022-10-15T07:04:04;12.20;97.00
62916;DHT22;49010;51.230;-2.306;2022-10-15T07:07:56;12.20;96.90
62916;DHT22;49010;51.230;-2.306;2022-10-15T07:11:38;12.10;96.70
62916;DHT22;49010;51.230;-2.306;2022-10-15T07:15:20;12.10;96.50
62916;DHT22;49010;51.230;-2.306;2022-10-15T07:19:02;12.00;96.30
62916;DHT22;49010;51.230;-2.306;2022-10-15T07:22:44;12.00;96.10
62916;DHT22;49010;51.230;-2.306;2022-10-15T07:26:26;11.90;95.80
62916;DHT22;49010;51.230;-2.306;2022-10-15T07:30:11;11.90;95.70
62916;DHT22;49010;51.230;-2.306;2022-10-15T07:33:53;11.90;95.70
62916;DHT22;49010;51.230;-2.306;2022-10-15T07:37:35;11.90;95.50
62916;DHT22;49010;51.230;-2.306;2022-10-15T07:41:17;11.90;95.40
62916;DHT22;49010;51.230;-2.306;2022-10-15T07:44:59;11.90;95.40
62916;DHT22;49010;51.230;-2.306;2022-10-15T07:48:41;11.90;95.30
62916;DHT22;49010;51.230;-2.306;2022-10-15T07:52:23;11.90;95.30
62916;DHT22;49010;51.230;-2.306;2022-10-15T07:56:07;12.00;95.50
62916;DHT22;49010;51.230;-2.306;2022-10-15T07:59:50;12.00;95.60
62916;DHT22;49010;51.230;-2.306;2022-10-15T08:03:32;12.00;95.80
62916;DHT22;49010;51.230;-2.306;2022-10-15T08:07:14;12.10;95.90
62916;DHT22;49010;51.230;-2.306;2022-10-15T08:11:21;12.20;96.20
62916;DHT22;49010;51.230;-2.306;2022-10-15T08:15:04;12.40;96.10
62916;DHT22;49010;51.230;-2.306;2022-10-15T08:18:46;12.50;96.20
62916;DHT22;49010;51.230;-2.306;2022-10-15T08:22:28;12.70;96.40
62916;DHT22;49010;51.230;-2.306;2022-10-15T08:26:10;12.90;96.20
62916;DHT22;49010;51.230;-2.306;2022-10-15T08:29:52;13.10;95.80
62916;DHT22;49010;51.230;-2.306;2022-10-15T08:33:35;13.30;95.30
62916;DHT22;49010;51.230;-2.306;2022-10-15T08:37:17;13.50;95.30
62916;DHT22;49010;51.230;-2.306;2022-10-15T08:41:00;13.50;94.90
62916;DHT22;49010;51.230;-2.306;2022-10-15T08:44:57;13.70;95.10
62916;DHT22;49010;51.230;-2.306;2022-10-15T08:48:58;13.90;94.50
62916;DHT22;49010;51.230;-2.306;2022-10-15T08:52:43;14.00;94.10
62916;DHT22;49010;51.230;-2.306;2022-10-15T08:56:33;14.10;93.80
62916;DHT22;49010;51.230;-2.306;2022-10-15T09:00:23;14.10;93.70
62916;DHT22;49010;51.230;-2.306;2022-10-15T09:04:31;14.20;93.10
62916;DHT22;49010;51.230;-2.306;2022-10-15T09:16:17;14.60;93.20
62916;DHT22;49010;51.230;-2.306;2022-10-15T09:20:04;14.90;92.60
62916;DHT22;49010;51.230;-2.306;2022-10-15T09:23:46;15.10;92.10
62916;DHT22;49010;51.230;-2.306;2022-10-15T09:27:37;15.20;91.50
62916;DHT22;49010;51.230;-2.306;2022-10-15T09:31:24;15.40;91.50
62916;DHT22;49010;51.230;-2.306;2022-10-15T09:35:21;15.50;90.60
62916;DHT22;49010;51.230;-2.306;2022-10-15T09:39:12;15.70;90.40
62916;DHT22;49010;51.230;-2.306;2022-10-15T09:42:59;15.80;88.80
62916;DHT22;49010;51.230;-2.306;2022-10-15T09:46:47;16.00;89.20
62916;DHT22;49010;51.230;-2.306;2022-10-15T09:50:41;16.10;88.50
62916;DHT22;49010;51.230;-2.306;2022-10-15T09:58:39;16.40;86.50
62916;DHT22;49010;51.230;-2.306;2022-10-15T10:02:24;16.70;87.00
62916;DHT22;49010;51.230;-2.306;2022-10-15T10:06:12;17.20;82.00
62916;DHT22;49010;51.230;-2.306;2022-10-15T10:09:57;17.70;80.70
62916;DHT22;49010;51.230;-2.306;2022-10-15T10:13:53;18.10;79.80
62916;DHT22;49010;51.230;-2.306;2022-10-15T10:17:35;18.70;78.80
62916;DHT22;49010;51.230;-2.306;2022-10-15T10:21:43;19.50;74.50
62916;DHT22;49010;51.230;-2.306;2022-10-15T10:25:40;20.70;74.00
62916;DHT22;49010;51.230;-2.306;2022-10-15T10:29:26;21.60;67.90
62916;DHT22;49010;51.230;-2.306;2022-10-15T10:33:25;22.10;61.30
62916;DHT22;49010;51.230;-2.306;2022-10-15T10:37:08;22.50;59.00
62916;DHT22;49010;51.230;-2.306;2022-10-15T10:40:57;22.60;57.10
62916;DHT22;49010;51.230;-2.306;2022-10-15T10:44:42;23.00;56.20
62916;DHT22;49010;51.230;-2.306;2022-10-15T10:48:48;23.30;56.60
62916;DHT22;49010;51.230;-2.306;2022-10-15T10:52:33;23.30;58.80
62916;DHT22;49010;51.230;-2.306;2022-10-15T10:56:30;23.30;56.40
62916;DHT22;49010;51.230;-2.306;2022-10-15T11:00:24;23.50;57.90
62916;DHT22;49010;51.230;-2.306;2022-10-15T11:04:22;24.00;54.20
62916;DHT22;49010;51.230;-2.306;2022-10-15T11:08:29;24.90;54.40
62916;DHT22;49010;51.230;-2.306;2022-10-15T11:12:31;25.40;55.20
62916;DHT22;49010;51.230;-2.306;2022-10-15T11:16:28;25.60;51.20
62916;DHT22;49010;51.230;-2.306;2022-10-15T11:20:24;25.80;48.70
62916;DHT22;49010;51.230;-2.306;2022-10-15T11:24:38;25.90;47.70
62916;DHT22;49010;51.230;-2.306;2022-10-15T11:32:55;25.80;46.80
62916;DHT22;49010;51.230;-2.306;2022-10-15T11:41:30;25.80;50.30
62916;DHT22;49010;51.230;-2.306;2022-10-15T11:57:03;26.70;42.40
62916;DHT22;49010;51.230;-2.306;2022-10-15T12:00:49;27.30;41.70
62916;DHT22;49010;51.230;-2.306;2022-10-15T12:04:40;27.80;41.90
62916;DHT22;49010;51.230;-2.306;2022-10-15T12:08:24;28.10;42.80
62916;DHT22;49010;51.230;-2.306;2022-10-15T12:12:16;27.60;42.20
62916;DHT22;49010;51.230;-2.306;2022-10-15T12:20:11;26.40;42.70
62916;DHT22;49010;51.230;-2.306;2022-10-15T12:23:54;25.70;42.40
62916;DHT22;49010;51.230;-2.306;2022-10-15T12:27:36;25.20;43.10
62916;DHT22;49010;51.230;-2.306;2022-10-15T12:31:18;24.90;45.40
62916;DHT22;49010;51.230;-2.306;2022-10-15T12:43:11;26.10;43.90
62916;DHT22;49010;51.230;-2.306;2022-10-15T12:46:55;26.10;43.40
62916;DHT22;49010;51.230;-2.306;2022-10-15T12:50:37;25.60;43.60
62916;DHT22;49010;51.230;-2.306;2022-10-15T12:54:41;25.50;45.00
62916;DHT22;49010;51.230;-2.306;2022-10-15T12:58:35;25.60;44.60
62916;DHT22;49010;51.230;-2.306;2022-10-15T13:02:41;25.30;46.10
62916;DHT22;49010;51.230;-2.306;2022-10-15T13:06:35;25.10;47.40
62916;DHT22;49010;51.230;-2.306;2022-10-15T13:10:23;24.80;44.30
62916;DHT22;49010;51.230;-2.306;2022-10-15T13:17:54;24.90;44.70
62916;DHT22;49010;51.230;-2.306;2022-10-15T13:21:51;25.30;42.10
62916;DHT22;49010;51.230;-2.306;2022-10-15T13:25:35;25.30;43.50
62916;DHT22;49010;51.230;-2.306;2022-10-15T13:29:25;24.90;43.20
62916;DHT22;49010;51.230;-2.306;2022-10-15T13:33:08;24.70;44.10
62916;DHT22;49010;51.230;-2.306;2022-10-15T13:36:52;24.60;43.30
62916;DHT22;49010;51.230;-2.306;2022-10-15T13:40:35;24.60;42.90
62916;DHT22;49010;51.230;-2.306;2022-10-15T13:44:23;24.50;42.30
62916;DHT22;49010;51.230;-2.306;2022-10-15T13:48:10;24.50;43.20
62916;DHT22;49010;51.230;-2.306;2022-10-15T13:51:54;24.30;44.60
62916;DHT22;49010;51.230;-2.306;2022-10-15T13:55:42;24.60;42.70
62916;DHT22;49010;51.230;-2.306;2022-10-15T13:59:27;25.40;41.00
62916;DHT22;49010;51.230;-2.306;2022-10-15T14:03:15;26.20;40.40
62916;DHT22;49010;51.230;-2.306;2022-10-15T14:07:01;26.90;40.80
62916;DHT22;49010;51.230;-2.306;2022-10-15T14:10:44;27.20;37.30
62916;DHT22;49010;51.230;-2.306;2022-10-15T14:14:45;27.30;37.40
62916;DHT22;49010;51.230;-2.306;2022-10-15T14:18:35;27.20;41.90
62916;DHT22;49010;51.230;-2.306;2022-10-15T14:22:19;27.30;37.70
62916;DHT22;49010;51.230;-2.306;2022-10-15T14:26:03;26.70;38.70
62916;DHT22;49010;51.230;-2.306;2022-10-15T14:29:53;26.50;38.90
62916;DHT22;49010;51.230;-2.306;2022-10-15T14:41:30;25.90;41.50
62916;DHT22;49010;51.230;-2.306;2022-10-15T14:45:25;25.60;40.00
62916;DHT22;49010;51.230;-2.306;2022-10-15T14:49:31;25.40;41.70
62916;DHT22;49010;51.230;-2.306;2022-10-15T14:53:20;25.40;43.60
62916;DHT22;49010;51.230;-2.306;2022-10-15T14:57:19;25.40;41.50
62916;DHT22;49010;51.230;-2.306;2022-10-15T15:01:06;25.10;42.90
62916;DHT22;49010;51.230;-2.306;2022-10-15T15:08:44;24.60;45.60
62916;DHT22;49010;51.230;-2.306;2022-10-15T15:12:27;24.60;45.60
62916;DHT22;49010;51.230;-2.306;2022-10-15T15:16:15;24.40;46.20
62916;DHT22;49010;51.230;-2.306;2022-10-15T15:19:58;23.80;47.70
62916;DHT22;49010;51.230;-2.306;2022-10-15T15:23:40;23.10;50.40
62916;DHT22;49010;51.230;-2.306;2022-10-15T15:27:28;22.50;51.40
62916;DHT22;49010;51.230;-2.306;2022-10-15T15:31:16;22.00;52.00
62916;DHT22;49010;51.230;-2.306;2022-10-15T15:34:58;21.80;52.30
62916;DHT22;49010;51.230;-2.306;2022-10-15T15:38:40;21.60;52.40
62916;DHT22;49010;51.230;-2.306;2022-10-15T15:42:23;21.30;53.00
62916;DHT22;49010;51.230;-2.306;2022-10-15T15:46:07;21.00;53.80
62916;DHT22;49010;51.230;-2.306;2022-10-15T15:49:49;20.60;54.70
62916;DHT22;49010;51.230;-2.306;2022-10-15T15:53:31;20.30;55.40
62916;DHT22;49010;51.230;-2.306;2022-10-15T15:57:13;20.10;56.30
62916;DHT22;49010;51.230;-2.306;2022-10-15T16:00:56;19.90;57.10
62916;DHT22;49010;51.230;-2.306;2022-10-15T16:04:38;20.10;56.10
62916;DHT22;49010;51.230;-2.306;2022-10-15T16:08:19;20.20;55.80
62916;DHT22;49010;51.230;-2.306;2022-10-15T16:12:02;20.00;55.90
62916;DHT22;49010;51.230;-2.306;2022-10-15T16:15:44;19.70;56.30
62916;DHT22;49010;51.230;-2.306;2022-10-15T16:19:26;19.40;56.70
62916;DHT22;49010;51.230;-2.306;2022-10-15T16:23:08;19.20;57.00
62916;DHT22;49010;51.230;-2.306;2022-10-15T16:26:50;19.00;57.80
62916;DHT22;49010;51.230;-2.306;2022-10-15T16:30:31;18.80;57.80
62916;DHT22;49010;51.230;-2.306;2022-10-15T16:34:13;18.50;58.20
62916;DHT22;49010;51.230;-2.306;2022-10-15T16:37:56;18.30;59.40
62916;DHT22;49010;51.230;-2.306;2022-10-15T16:41:37;18.20;59.20
62916;DHT22;49010;51.230;-2.306;2022-10-15T16:45:20;18.10;59.70
62916;DHT22;49010;51.230;-2.306;2022-10-15T16:49:02;18.00;60.00
62916;DHT22;49010;51.230;-2.306;2022-10-15T16:52:44;17.90;60.30
62916;DHT22;49010;51.230;-2.306;2022-10-15T16:56:27;17.80;59.90
62916;DHT22;49010;51.230;-2.306;2022-10-15T17:00:10;17.60;60.90
62916;DHT22;49010;51.230;-2.306;2022-10-15T17:03:52;17.50;61.40
62916;DHT22;49010;51.230;-2.306;2022-10-15T17:07:34;17.40;61.80
62916;DHT22;49010;51.230;-2.306;2022-10-15T17:11:20;17.30;62.30
62916;DHT22;49010;51.230;-2.306;2022-10-15T17:15:02;17.10;62.40
62916;DHT22;49010;51.230;-2.306;2022-10-15T17:18:44;17.00;62.90
62916;DHT22;49010;51.230;-2.306;2022-10-15T17:22:26;16.90;62.70
62916;DHT22;49010;51.230;-2.306;2022-10-15T17:26:12;16.90;62.60
62916;DHT22;49010;51.230;-2.306;2022-10-15T17:29:54;16.70;62.10
62916;DHT22;49010;51.230;-2.306;2022-10-15T17:33:37;16.60;61.80
62916;DHT22;49010;51.230;-2.306;2022-10-15T17:37:19;16.40;61.90
62916;DHT22;49010;51.230;-2.306;2022-10-15T17:44:53;16.30;61.30
62916;DHT22;49010;51.230;-2.306;2022-10-15T17:48:35;16.20;60.80
62916;DHT22;49010;51.230;-2.306;2022-10-15T17:52:18;16.10;61.80
62916;DHT22;49010;51.230;-2.306;2022-10-15T17:56:15;16.00;62.00
62916;DHT22;49010;51.230;-2.306;2022-10-15T17:59:57;16.00;62.40
62916;DHT22;49010;51.230;-2.306;2022-10-15T18:03:40;15.90;62.60
62916;DHT22;49010;51.230;-2.306;2022-10-15T18:07:22;15.80;63.00
62916;DHT22;49010;51.230;-2.306;2022-10-15T18:11:06;15.80;63.60
62916;DHT22;49010;51.230;-2.306;2022-10-15T18:14:49;15.70;64.30
62916;DHT22;49010;51.230;-2.306;2022-10-15T18:18:31;15.60;64.90
62916;DHT22;49010;51.230;-2.306;2022-10-15T18:22:16;15.50;66.00
62916;DHT22;49010;51.230;-2.306;2022-10-15T18:29:44;15.40;67.70
62916;DHT22;49010;51.230;-2.306;2022-10-15T18:33:25;15.30;68.50
62916;DHT22;49010;51.230;-2.306;2022-10-15T18:37:07;15.20;69.20
62916;DHT22;49010;51.230;-2.306;2022-10-15T18:40:49;15.20;69.50
62916;DHT22;49010;51.230;-2.306;2022-10-15T18:44:31;15.10;69.90
62916;DHT22;49010;51.230;-2.306;2022-10-15T18:48:14;15.00;70.30
62916;DHT22;49010;51.230;-2.306;2022-10-15T18:51:56;15.00;70.50
62916;DHT22;49010;51.230;-2.306;2022-10-15T18:55:46;15.00;70.80
62916;DHT22;49010;51.230;-2.306;2022-10-15T18:59:28;14.90;70.80
62916;DHT22;49010;51.230;-2.306;2022-10-15T19:03:16;14.90;71.00
62916;DHT22;49010;51.230;-2.306;2022-10-15T19:07:00;14.90;70.90
62916;DHT22;49010;51.230;-2.306;2022-10-15T19:11:08;14.80;71.10
62916;DHT22;49010;51.230;-2.306;2022-10-15T19:14:50;14.80;71.30
62916;DHT22;49010;51.230;-2.306;2022-10-15T19:18:35;14.70;71.40
62916;DHT22;49010;51.230;-2.306;2022-10-15T19:22:44;14.70;71.60
62916;DHT22;49010;51.230;-2.306;2022-10-15T19:26:50;14.70;71.90
62916;DHT22;49010;51.230;-2.306;2022-10-15T19:30:33;14.60;72.30
62916;DHT22;49010;51.230;-2.306;2022-10-15T19:34:29;14.50;72.70
62916;DHT22;49010;51.230;-2.306;2022-10-15T19:38:11;14.50;73.20
62916;DHT22;49010;51.230;-2.306;2022-10-15T19:41:53;14.50;73.80
62916;DHT22;49010;51.230;-2.306;2022-10-15T19:45:36;14.40;74.10
62916;DHT22;49010;51.230;-2.306;2022-10-15T19:49:19;14.40;74.50
62916;DHT22;49010;51.230;-2.306;2022-10-15T19:53:01;14.40;75.00
62916;DHT22;49010;51.230;-2.306;2022-10-15T19:56:44;14.30;75.10
62916;DHT22;49010;51.230;-2.306;2022-10-15T20:00:26;14.30;75.20
62916;DHT22;49010;51.230;-2.306;2022-10-15T20:08:00;14.20;75.40
62916;DHT22;49010;51.230;-2.306;2022-10-15T20:11:42;14.20;75.80
62916;DHT22;49010;51.230;-2.306;2022-10-15T20:15:48;14.20;75.90
62916;DHT22;49010;51.230;-2.306;2022-10-15T20:19:30;14.10;76.20
62916;DHT22;49010;51.230;-2.306;2022-10-15T20:23:15;14.20;76.30
62916;DHT22;49010;51.230;-2.306;2022-10-15T20:27:11;14.10;76.30
62916;DHT22;49010;51.230;-2.306;2022-10-15T20:31:26;14.20;76.00
62916;DHT22;49010;51.230;-2.306;2022-10-15T20:35:22;14.20;76.30
62916;DHT22;49010;51.230;-2.306;2022-10-15T20:39:03;14.30;76.20
62916;DHT22;49010;51.230;-2.306;2022-10-15T20:42:45;14.30;76.10
62916;DHT22;49010;51.230;-2.306;2022-10-15T20:46:33;14.30;75.90
62916;DHT22;49010;51.230;-2.306;2022-10-15T20:50:23;14.30;75.80
62916;DHT22;49010;51.230;-2.306;2022-10-15T20:54:08;14.20;75.70
62916;DHT22;49010;51.230;-2.306;2022-10-15T20:57:51;14.20;75.80
62916;DHT22;49010;51.230;-2.306;2022-10-15T21:01:34;14.10;75.80
62916;DHT22;49010;51.230;-2.306;2022-10-15T21:05:31;14.00;75.80
62916;DHT22;49010;51.230;-2.306;2022-10-15T21:09:23;14.00;75.40
62916;DHT22;49010;51.230;-2.306;2022-10-15T21:16:58;14.00;75.20
62916;DHT22;49010;51.230;-2.306;2022-10-15T21:20:40;13.90;75.10
62916;DHT22;49010;51.230;-2.306;2022-10-15T21:24:22;13.90;75.30
62916;DHT22;49010;51.230;-2.306;2022-10-15T21:28:08;13.80;75.10
62916;DHT22;49010;51.230;-2.306;2022-10-15T21:31:50;13.80;74.70
62916;DHT22;49010;51.230;-2.306;2022-10-15T21:35:33;13.70;74.30
62916;DHT22;49010;51.230;-2.306;2022-10-15T21:39:15;13.70;74.30
62916;DHT22;49010;51.230;-2.306;2022-10-15T21:42:57;13.70;74.10
62916;DHT22;49010;51.230;-2.306;2022-10-15T21:46:40;13.60;74.00
62916;DHT22;49010;51.230;-2.306;2022-10-15T21:50:22;13.60;73.90
62916;DHT22;49010;51.230;-2.306;2022-10-15T21:54:05;13.50;73.90
62916;DHT22;49010;51.230;-2.306;2022-10-15T21:57:48;13.50;74.00
62916;DHT22;49010;51.230;-2.306;2022-10-15T22:01:32;13.50;74.10
62916;DHT22;49010;51.230;-2.306;2022-10-15T22:05:15;13.50;74.20
62916;DHT22;49010;51.230;-2.306;2022-10-15T22:08:57;13.40;74.50
62916;DHT22;49010;51.230;-2.306;2022-10-15T22:12:39;13.30;74.70
62916;DHT22;49010;51.230;-2.306;2022-10-15T22:16:22;13.30;75.20
62916;DHT22;49010;51.230;-2.306;2022-10-15T22:20:05;13.20;75.30
62916;DHT22;49010;51.230;-2.306;2022-10-15T22:23:52;13.20;75.60
62916;DHT22;49010;51.230;-2.306;2022-10-15T22:27:34;13.20;75.70
62916;DHT22;49010;51.230;-2.306;2022-10-15T22:31:16;13.10;75.80
62916;DHT22;49010;51.230;-2.306;2022-10-15T22:34:58;13.10;76.10
62916;DHT22;49010;51.230;-2.306;2022-10-15T22:38:41;13.10;76.30
62916;DHT22;49010;51.230;-2.306;2022-10-15T22:42:24;13.00;76.60
62916;DHT22;49010;51.230;-2.306;2022-10-15T22:46:06;13.00;76.90
62916;DHT22;49010;51.230;-2.306;2022-10-15T22:49:48;13.00;76.80
62916;DHT22;49010;51.230;-2.306;2022-10-15T22:53:31;12.90;76.90
62916;DHT22;49010;51.230;-2.306;2022-10-15T22:57:13;12.90;77.20
62916;DHT22;49010;51.230;-2.306;2022-10-15T23:00:55;12.90;77.40
62916;DHT22;49010;51.230;-2.306;2022-10-15T23:04:37;12.90;77.50
62916;DHT22;49010;51.230;-2.306;2022-10-15T23:08:20;12.90;77.40
62916;DHT22;49010;51.230;-2.306;2022-10-15T23:12:02;12.90;77.40
62916;DHT22;49010;51.230;-2.306;2022-10-15T23:15:44;12.90;77.40
62916;DHT22;49010;51.230;-2.306;2022-10-15T23:19:25;12.80;77.40
62916;DHT22;49010;51.230;-2.306;2022-10-15T23:23:07;12.80;77.50
62916;DHT22;49010;51.230;-2.306;2022-10-15T23:26:50;12.80;77.70
62916;DHT22;49010;51.230;-2.306;2022-10-15T23:30:32;12.80;78.00
62916;DHT22;49010;51.230;-2.306;2022-10-15T23:34:18;12.80;78.10
62916;DHT22;49010;51.230;-2.306;2022-10-15T23:38:03;12.80;78.50
62916;DHT22;49010;51.230;-2.306;2022-10-15T23:41:45;12.80;78.60
62916;DHT22;49010;51.230;-2.306;2022-10-15T23:45:27;12.80;79.00
62916;DHT22;49010;51.230;-2.306;2022-10-15T23:49:10;12.80;79.00
62916;DHT22;49010;51.230;-2.306;2022-10-15T23:52:52;12.90;79.20
62916;DHT22;49010;51.230;-2.306;2022-10-15T23:56:33;12.90;79.20
